createdAt,value
2018-04-18T00:02:04.392Z,8.63
2018-04-18T00:04:32.190Z,9.03
2018-04-18T00:06:59.428Z,7.97
2018-04-18T00:09:26.517Z,9.30
2018-04-18T00:11:53.532Z,9.50
2018-04-18T00:14:20.577Z,10.77
2018-04-18T00:16:47.600Z,8.30
2018-04-18T00:19:15.384Z,8.73
2018-04-18T00:21:42.440Z,8.37
2018-04-18T00:24:09.455Z,8.80
2018-04-18T00:26:37.475Z,8.57
2018-04-18T00:29:05.278Z,9.53
2018-04-18T00:31:32.286Z,9.53
2018-04-18T00:33:59.312Z,8.40
2018-04-18T00:36:26.325Z,9.17
2018-04-18T00:38:53.382Z,9.07
2018-04-18T00:41:20.712Z,9.57
2018-04-18T00:43:47.817Z,8.60
2018-04-18T00:46:15.555Z,11.57
2018-04-18T00:48:43.324Z,8.63
2018-04-18T00:51:11.067Z,9.33
2018-04-18T00:53:38.541Z,8.77
2018-04-18T00:56:05.629Z,9.83
2018-04-18T00:58:32.648Z,10.00
2018-04-18T01:01:00.407Z,9.33
2018-04-18T01:03:28.161Z,11.57
2018-04-18T01:05:55.229Z,10.80
2018-04-18T01:08:22.256Z,9.20
2018-04-18T01:10:50.020Z,9.40
2018-04-18T01:13:17.767Z,10.30
2018-04-18T01:15:44.799Z,10.60
2018-04-18T01:18:11.844Z,9.97
2018-04-18T01:20:38.858Z,10.27
2018-04-18T01:23:05.889Z,9.30
2018-04-18T01:25:32.922Z,10.60
2018-04-18T01:27:59.977Z,10.00
2018-04-18T01:30:27.759Z,9.00
2018-04-18T01:32:54.799Z,8.90
2018-04-18T01:35:21.816Z,10.00
2018-04-18T01:37:48.819Z,10.57
2018-04-18T01:40:15.844Z,10.80
2018-04-18T01:42:42.857Z,10.50
2018-04-18T01:45:09.904Z,10.37
2018-04-18T01:47:36.930Z,8.70
2018-04-18T01:50:03.978Z,10.60
2018-04-18T01:52:31.019Z,10.60
2018-04-18T01:54:58.048Z,10.53
2018-04-18T01:57:25.063Z,10.30
2018-04-18T01:59:52.809Z,9.50
2018-04-18T02:02:19.862Z,10.17
2018-04-18T02:04:47.653Z,12.37
2018-04-18T02:07:14.668Z,11.37
2018-04-18T02:09:42.444Z,10.63
2018-04-18T02:12:10.196Z,9.70
2018-04-18T02:14:37.244Z,9.40
2018-04-18T02:17:04.284Z,9.23
2018-04-18T02:19:32.070Z,11.27
2018-04-18T02:21:59.832Z,10.20
2018-04-18T02:24:27.587Z,10.07
2018-04-18T02:26:55.033Z,9.33
2018-04-18T02:29:22.103Z,9.30
2018-04-18T02:31:49.879Z,10.33
2018-04-18T02:34:17.852Z,11.27
2018-04-18T02:36:45.122Z,10.33
2018-04-18T02:39:12.216Z,10.10
2018-04-18T02:41:39.275Z,10.60
2018-04-18T02:44:07.024Z,11.97
2018-04-18T02:46:34.283Z,9.97
2018-04-18T02:49:01.359Z,8.70
2018-04-18T02:51:29.141Z,9.57
2018-04-18T02:53:56.200Z,10.77
2018-04-18T02:56:23.228Z,10.17
2018-04-18T02:58:51.005Z,10.83
2018-04-18T03:01:18.042Z,15.20
2018-04-18T03:03:45.080Z,10.57
2018-04-18T03:06:12.131Z,8.67
2018-04-18T03:08:39.137Z,10.70
2018-04-18T03:11:06.149Z,10.23
2018-04-18T03:13:33.161Z,10.30
2018-04-18T03:16:00.920Z,9.90
2018-04-18T03:18:28.685Z,10.53
2018-04-18T03:20:56.461Z,10.13
2018-04-18T03:23:24.220Z,10.20
2018-04-18T03:25:51.990Z,10.33
2018-04-18T03:28:19.727Z,10.40
2018-04-18T03:30:47.546Z,11.40
2018-04-18T03:33:14.576Z,11.83
2018-04-18T03:35:41.588Z,11.23
2018-04-18T03:38:09.349Z,11.10
2018-04-18T03:40:36.356Z,10.30
2018-04-18T03:43:03.528Z,9.40
2018-04-18T03:45:30.539Z,10.77
2018-04-18T03:47:57.617Z,12.30
2018-04-18T03:50:24.649Z,12.67
2018-04-18T03:52:51.646Z,13.20
2018-04-18T03:55:19.408Z,11.93
2018-04-18T03:57:47.159Z,11.13
2018-04-18T04:00:14.185Z,12.00
2018-04-18T04:02:41.217Z,12.47
2018-04-18T04:05:08.232Z,12.53
2018-04-18T04:07:35.964Z,10.83
2018-04-18T04:10:03.034Z,11.33
2018-04-18T04:12:30.800Z,11.30
2018-04-18T04:14:58.055Z,13.67
2018-04-18T04:17:43.619Z,11.30
2018-04-18T04:20:29.148Z,9.87
2018-04-18T04:23:14.763Z,11.10
2018-04-18T04:25:42.654Z,12.27
2018-04-18T04:28:11.680Z,13.40
2018-04-18T04:30:38.704Z,12.77
2018-04-18T04:33:06.498Z,12.20
2018-04-18T04:35:34.308Z,11.37
2018-04-18T04:38:01.369Z,12.37
2018-04-18T04:40:29.308Z,12.30
2018-04-18T04:42:56.437Z,13.47
2018-04-18T04:45:23.924Z,13.07
2018-04-18T04:47:50.936Z,12.37
2018-04-18T04:50:18.155Z,12.43
2018-04-18T04:52:45.222Z,16.10
2018-04-18T04:55:13.000Z,13.67
2018-04-18T04:57:40.016Z,13.20
2018-04-18T05:00:07.052Z,12.83
2018-04-18T05:02:34.861Z,13.50
2018-04-18T05:05:01.843Z,13.30
2018-04-18T05:07:29.072Z,13.30
2018-04-18T05:09:56.112Z,16.53
2018-04-18T05:12:23.132Z,12.17
2018-04-18T05:14:50.893Z,15.10
2018-04-18T05:17:18.624Z,14.07
2018-04-18T05:19:45.651Z,13.40
2018-04-18T05:22:12.845Z,12.20
2018-04-18T05:24:40.695Z,15.13
2018-04-18T05:27:07.708Z,14.07
2018-04-18T05:29:34.754Z,13.67
2018-04-18T05:32:01.800Z,14.10
2018-04-18T05:34:28.808Z,14.70
2018-04-18T05:36:56.544Z,13.23
2018-04-18T05:39:23.556Z,14.97
2018-04-18T05:41:50.565Z,15.27
2018-04-18T05:44:18.324Z,15.53
2018-04-18T05:46:46.064Z,17.13
2018-04-18T05:49:13.071Z,18.53
2018-04-18T05:51:40.096Z,16.07
2018-04-18T05:54:07.846Z,15.97
2018-04-18T05:56:35.072Z,14.60
2018-04-18T05:59:02.147Z,15.40
2018-04-18T06:01:29.907Z,15.70
2018-04-18T06:03:57.030Z,15.50
2018-04-18T06:06:24.807Z,18.60
2018-04-18T06:08:51.922Z,16.10
2018-04-18T06:11:19.713Z,16.77
2018-04-18T06:13:46.806Z,15.80
2018-04-18T06:16:13.994Z,17.63
2018-04-18T06:18:41.032Z,16.63
2018-04-18T06:21:08.183Z,15.27
2018-04-18T06:23:35.320Z,16.57
2018-04-18T06:26:02.477Z,17.13
2018-04-18T06:28:29.567Z,17.43
2018-04-18T06:30:56.678Z,19.10
2018-04-18T06:33:23.724Z,17.87
2018-04-18T06:35:50.883Z,20.07
2018-04-18T06:38:18.046Z,19.50
2018-04-18T06:40:45.956Z,17.30
2018-04-18T06:43:13.125Z,17.93
2018-04-18T06:45:40.208Z,16.53
2018-04-18T06:48:07.338Z,15.97
2018-04-18T06:50:35.135Z,17.10
2018-04-18T06:53:02.227Z,18.00
2018-04-18T06:55:29.280Z,17.00
2018-04-18T06:57:56.400Z,17.20
2018-04-18T07:00:23.585Z,17.27
2018-04-18T07:02:51.563Z,18.77
2018-04-18T07:05:18.770Z,16.70
2018-04-18T07:07:46.005Z,15.77
2018-04-18T07:10:13.799Z,19.10
2018-04-18T07:12:41.864Z,17.13
2018-04-18T07:15:09.184Z,17.83
2018-04-18T07:17:36.268Z,16.00
2018-04-18T07:20:03.411Z,17.57
2018-04-18T07:22:30.558Z,17.50
2018-04-18T07:24:57.749Z,18.60
2018-04-18T07:27:25.720Z,19.07
2018-04-18T07:29:52.817Z,20.73
2018-04-18T07:32:19.913Z,18.87
2018-04-18T07:34:46.998Z,20.10
2018-04-18T07:37:14.110Z,19.60
2018-04-18T07:39:41.913Z,19.07
2018-04-18T07:42:09.544Z,16.27
2018-04-18T07:44:37.055Z,17.97
2018-04-18T07:47:05.155Z,18.33
2018-04-18T07:49:32.438Z,17.50
2018-04-18T07:52:00.273Z,18.70
2018-04-18T07:54:28.153Z,15.90
2018-04-18T07:56:55.319Z,16.73
2018-04-18T07:59:22.513Z,17.23
2018-04-18T08:01:50.458Z,17.17
2018-04-18T08:04:18.573Z,17.23
2018-04-18T08:06:45.808Z,16.67
2018-04-18T08:09:13.009Z,17.07
2018-04-18T08:11:40.270Z,18.90
2018-04-18T08:14:07.615Z,16.60
2018-04-18T08:16:34.729Z,15.53
2018-04-18T08:19:01.915Z,16.90
2018-04-18T08:21:29.829Z,15.43
2018-04-18T08:23:57.189Z,14.73
2018-04-18T08:26:24.441Z,14.20
2018-04-18T08:28:51.664Z,14.83
2018-04-18T08:31:18.905Z,14.53
2018-04-18T08:33:46.875Z,13.70
2018-04-18T08:36:14.806Z,14.07
2018-04-18T08:38:42.060Z,13.67
2018-04-18T08:41:09.298Z,14.50
2018-04-18T08:43:36.444Z,14.30
2018-04-18T08:46:04.326Z,15.77
2018-04-18T08:48:31.392Z,13.23
2018-04-18T08:50:58.530Z,13.07
2018-04-18T08:53:25.606Z,12.60
2018-04-18T08:55:52.729Z,12.03
2018-04-18T08:58:19.905Z,15.27
2018-04-18T09:00:47.787Z,13.37
2018-04-18T09:03:14.940Z,13.70
2018-04-18T09:05:42.957Z,13.13
2018-04-18T09:08:10.088Z,11.93
2018-04-18T09:10:37.135Z,14.27
2018-04-18T09:13:05.025Z,11.37
2018-04-18T09:15:32.084Z,10.87
2018-04-18T09:17:59.181Z,12.07
2018-04-18T09:20:26.229Z,11.00
2018-04-18T09:22:53.328Z,10.63
2018-04-18T09:25:20.376Z,10.63
2018-04-18T09:27:47.707Z,10.27
2018-04-18T09:30:14.759Z,11.70
2018-04-18T09:32:41.882Z,9.33
2018-04-18T09:35:08.936Z,9.60
2018-04-18T09:37:36.943Z,9.70
2018-04-18T09:40:05.039Z,12.30
2018-04-18T09:42:32.182Z,10.37
2018-04-18T09:44:59.977Z,10.73
2018-04-18T09:47:27.249Z,11.20
2018-04-18T09:49:54.501Z,11.00
2018-04-18T09:52:23.164Z,9.87
2018-04-18T09:54:50.521Z,9.37
2018-04-18T09:57:17.885Z,9.20
2018-04-18T09:59:45.154Z,9.47
2018-04-18T10:02:17.377Z,9.73
2018-04-18T10:07:18.625Z,10.73
2018-04-18T10:09:45.877Z,11.17
2018-04-18T10:12:13.173Z,8.10
2018-04-18T10:14:40.374Z,8.63
2018-04-18T10:17:07.746Z,8.57
2018-04-18T10:19:34.927Z,9.47
2018-04-18T10:22:02.969Z,8.50
2018-04-18T10:24:30.980Z,8.60
2018-04-18T10:26:58.330Z,8.83
2018-04-18T10:29:25.550Z,7.93
2018-04-18T10:31:52.712Z,7.20
2018-04-18T10:34:20.876Z,9.20
2018-04-18T10:36:48.103Z,8.03
2018-04-18T10:39:16.204Z,8.03
2018-04-18T10:41:43.495Z,8.97
2018-04-18T10:44:11.516Z,13.33
2018-04-18T10:46:38.830Z,8.07
2018-04-18T10:49:06.125Z,9.60
2018-04-18T10:51:33.262Z,8.90
2018-04-18T10:54:01.440Z,8.40
2018-04-18T10:56:29.529Z,9.53
2018-04-18T10:58:57.032Z,9.53
2018-04-18T11:01:24.287Z,6.93
2018-04-18T11:03:51.536Z,8.70
2018-04-18T11:06:18.952Z,7.57
2018-04-18T11:08:46.950Z,7.63
2018-04-18T11:11:14.159Z,7.97
2018-04-18T11:13:41.371Z,7.67
2018-04-18T11:16:09.585Z,7.20
2018-04-18T11:18:36.929Z,8.17
2018-04-18T11:21:04.289Z,7.70
2018-04-18T11:23:31.480Z,7.53
2018-04-18T11:25:58.912Z,9.13
2018-04-18T11:28:26.118Z,8.60
2018-04-18T11:30:53.489Z,8.80
2018-04-18T11:33:20.850Z,8.10
2018-04-18T11:35:48.112Z,8.63
2018-04-18T11:38:15.338Z,7.90
2018-04-18T11:40:43.217Z,8.60
2018-04-18T11:43:10.285Z,8.13
2018-04-18T11:45:37.424Z,8.23
2018-04-18T11:48:04.898Z,7.03
2018-04-18T11:50:32.298Z,7.70
2018-04-18T11:52:59.666Z,9.27
2018-04-18T11:55:27.571Z,7.60
2018-04-18T11:57:55.010Z,8.00
2018-04-18T12:00:22.938Z,7.70
2018-04-18T12:02:50.089Z,10.00
2018-04-18T12:05:17.267Z,9.30
2018-04-18T12:07:45.069Z,8.70
2018-04-18T12:10:12.150Z,8.67
2018-04-18T12:12:39.247Z,8.87
2018-04-18T12:15:06.272Z,8.10
2018-04-18T12:17:34.213Z,8.80
2018-04-18T12:20:01.433Z,9.13
2018-04-18T12:22:29.181Z,9.33
2018-04-18T12:24:56.397Z,9.83
2018-04-18T12:27:23.791Z,9.00
2018-04-18T12:29:51.009Z,8.37
2018-04-18T12:32:18.180Z,9.37
2018-04-18T12:34:45.304Z,9.40
2018-04-18T12:37:12.361Z,9.10
2018-04-18T12:39:39.435Z,9.27
2018-04-18T12:42:06.605Z,9.53
2018-04-18T12:44:33.733Z,9.13
2018-04-18T12:47:00.938Z,7.70
2018-04-18T12:49:29.006Z,8.93
2018-04-18T12:51:56.908Z,10.70
2018-04-18T12:54:24.132Z,7.83
2018-04-18T12:56:51.414Z,9.03
2018-04-18T12:59:18.669Z,9.70
2018-04-18T13:01:45.912Z,11.63
2018-04-18T13:04:13.148Z,8.53
2018-04-18T13:06:40.349Z,8.70
2018-04-18T13:09:07.405Z,8.77
2018-04-18T13:11:35.128Z,11.07
2018-04-18T13:14:02.293Z,8.10
2018-04-18T13:16:30.065Z,8.60
2018-04-18T13:18:58.331Z,9.07
2018-04-18T13:21:26.240Z,9.00
2018-04-18T13:23:54.494Z,8.00
2018-04-18T13:26:23.674Z,8.43
2018-04-18T13:28:51.539Z,9.97
2018-04-18T13:31:18.697Z,8.00
2018-04-18T13:33:45.907Z,8.57
2018-04-18T13:36:13.884Z,7.97
2018-04-18T13:38:41.074Z,8.97
2018-04-18T13:41:08.143Z,8.37
2018-04-18T13:43:35.144Z,8.50
2018-04-18T13:46:02.148Z,9.33
2018-04-18T13:48:29.168Z,8.87
2018-04-18T13:50:56.249Z,8.47
2018-04-18T13:53:23.268Z,7.77
2018-04-18T13:55:50.415Z,7.03
2018-04-18T13:58:17.501Z,6.40
2018-04-18T14:00:44.709Z,6.73
2018-04-18T14:03:11.916Z,9.57
2018-04-18T14:05:39.140Z,7.67
2018-04-18T14:08:06.473Z,9.20
2018-04-18T14:10:33.689Z,8.23
2018-04-18T14:13:01.699Z,7.10
2018-04-18T14:15:30.297Z,7.97
2018-04-18T14:17:57.417Z,8.13
2018-04-18T14:20:25.270Z,7.27
2018-04-18T14:22:52.473Z,9.70
2018-04-18T14:25:19.683Z,8.97
2018-04-18T14:27:46.985Z,8.83
2018-04-18T14:30:14.988Z,9.10
2018-04-18T14:32:43.156Z,8.30
2018-04-18T14:35:10.173Z,7.90
2018-04-18T14:37:37.373Z,7.73
2018-04-18T14:40:04.463Z,9.10
2018-04-18T14:42:32.596Z,8.20
2018-04-18T14:45:00.789Z,9.70
2018-04-18T14:47:29.322Z,9.17
2018-04-18T14:49:57.058Z,8.23
2018-04-18T14:52:24.244Z,9.00
2018-04-18T14:54:53.795Z,7.63
2018-04-18T14:57:20.870Z,7.40
2018-04-18T14:59:52.108Z,7.37
2018-04-18T15:02:19.922Z,7.37
2018-04-18T15:04:46.938Z,7.57
2018-04-18T15:07:13.970Z,7.67
2018-04-18T15:09:41.119Z,7.00
2018-04-18T15:12:08.281Z,6.60
2018-04-18T15:14:35.419Z,8.00
2018-04-18T15:17:04.958Z,6.73
2018-04-18T15:19:31.984Z,7.90
2018-04-18T15:21:59.124Z,6.87
2018-04-18T15:24:26.186Z,6.47
2018-04-18T15:26:53.956Z,7.00
2018-04-18T15:29:20.963Z,6.07
2018-04-18T15:31:48.720Z,7.87
2018-04-18T15:34:15.924Z,8.30
2018-04-18T15:36:43.704Z,4.90
2018-04-18T15:39:11.465Z,6.67
2018-04-18T15:41:38.508Z,5.70
2018-04-18T15:44:05.536Z,5.40
2018-04-18T15:46:32.592Z,5.10
2018-04-18T15:48:59.653Z,5.20
2018-04-18T15:51:26.648Z,5.80
2018-04-18T15:53:53.857Z,6.40
2018-04-18T15:56:21.703Z,6.40
2018-04-18T15:58:53.459Z,4.97
2018-04-18T16:01:28.849Z,5.43
2018-04-18T16:03:56.805Z,11.97
2018-04-18T16:06:23.938Z,5.00
2018-04-18T16:08:51.024Z,5.60
2018-04-18T16:11:18.769Z,4.40
2018-04-18T16:13:46.623Z,4.97
2018-04-18T16:16:13.978Z,6.53
2018-04-18T16:18:42.344Z,4.70
2018-04-18T16:21:13.349Z,5.20
2018-04-18T16:23:46.801Z,6.07
2018-04-18T16:26:13.962Z,4.13
2018-04-18T16:28:45.587Z,5.30
2018-04-18T16:31:13.452Z,4.57
2018-04-18T16:33:49.783Z,4.77
2018-04-18T16:36:17.771Z,4.10
2018-04-18T16:38:52.327Z,6.30
2018-04-18T16:41:20.515Z,4.60
2018-04-18T16:43:48.558Z,4.43
2018-04-18T16:46:17.839Z,4.23
2018-04-18T16:48:47.449Z,4.57
2018-04-18T16:51:16.840Z,5.03
2018-04-18T16:53:43.976Z,3.80
2018-04-18T16:56:11.101Z,6.60
2018-04-18T16:58:39.102Z,4.47
2018-04-18T17:01:06.172Z,4.50
2018-04-18T17:03:33.364Z,4.70
2018-04-18T17:06:00.594Z,5.60
2018-04-18T17:08:27.681Z,4.17
2018-04-18T17:10:54.681Z,6.70
2018-04-18T17:13:22.444Z,10.73
2018-04-18T17:15:49.509Z,6.20
2018-04-18T17:18:16.555Z,6.37
2018-04-18T17:20:43.580Z,6.33
2018-04-18T17:23:11.360Z,4.90
2018-04-18T17:25:39.297Z,10.63
2018-04-18T17:28:06.316Z,5.30
2018-04-18T17:30:33.320Z,4.77
2018-04-18T17:33:01.089Z,5.13
2018-04-18T17:35:28.899Z,5.00
2018-04-18T17:37:56.080Z,5.67
2018-04-18T17:40:24.122Z,6.57
2018-04-18T17:42:51.345Z,5.73
2018-04-18T17:45:18.455Z,4.97
2018-04-18T17:47:45.499Z,5.53
2018-04-18T17:50:12.561Z,9.73
2018-04-18T17:52:39.557Z,9.33
2018-04-18T17:55:06.578Z,9.70
2018-04-18T17:57:33.613Z,7.07
2018-04-18T18:00:00.620Z,7.37
2018-04-18T18:02:27.649Z,5.17
2018-04-18T18:04:54.720Z,13.37
2018-04-18T18:07:21.732Z,10.37
2018-04-18T18:09:48.764Z,15.13
2018-04-18T18:12:15.788Z,7.77
2018-04-18T18:14:42.807Z,7.73
2018-04-18T18:17:09.824Z,8.43
2018-04-18T18:19:36.877Z,10.10
2018-04-18T18:22:03.975Z,8.57
2018-04-18T18:24:31.059Z,6.70
2018-04-18T18:26:58.161Z,7.57
2018-04-18T18:29:25.199Z,7.37
2018-04-18T18:31:52.217Z,8.43
2018-04-18T18:34:19.450Z,8.90
2018-04-18T18:36:46.512Z,7.30
2018-04-18T18:39:13.566Z,6.73
2018-04-18T18:41:40.555Z,7.23
2018-04-18T18:44:07.595Z,6.60
2018-04-18T18:46:34.607Z,7.00
2018-04-18T18:49:01.617Z,6.97
2018-04-18T18:51:28.646Z,7.27
2018-04-18T18:53:55.690Z,6.93
2018-04-18T18:56:22.921Z,6.27
2018-04-18T18:58:49.999Z,6.50
2018-04-18T19:01:17.058Z,8.93
2018-04-18T19:03:44.832Z,7.33
2018-04-18T19:06:11.816Z,6.83
2018-04-18T19:08:38.873Z,6.87
2018-04-18T19:11:05.918Z,9.30
2018-04-18T19:13:32.945Z,5.90
2018-04-18T19:15:59.944Z,7.37
2018-04-18T19:18:27.726Z,7.17
2018-04-18T19:20:54.705Z,6.53
2018-04-18T19:23:21.719Z,6.07
2018-04-18T19:25:48.790Z,7.97
2018-04-18T19:28:15.930Z,6.50
2018-04-18T19:30:43.104Z,6.97
2018-04-18T19:33:10.124Z,7.10
2018-04-18T19:35:37.145Z,7.53
2018-04-18T19:38:04.193Z,6.67
2018-04-18T19:40:31.968Z,7.57
2018-04-18T19:42:59.973Z,6.93
2018-04-18T19:45:27.017Z,8.50
2018-04-18T19:47:54.037Z,6.67
2018-04-18T19:50:21.801Z,7.30
2018-04-18T19:52:48.798Z,10.87
2018-04-18T19:55:15.825Z,7.13
2018-04-18T19:57:42.842Z,7.60
2018-04-18T20:00:09.903Z,6.40
2018-04-18T20:02:38.705Z,7.67
2018-04-18T20:05:05.769Z,10.73
2018-04-18T20:07:32.840Z,9.07
2018-04-18T20:10:00.872Z,9.13
2018-04-18T20:12:27.861Z,7.47
2018-04-18T20:14:55.637Z,7.17
2018-04-18T20:17:23.407Z,8.00
2018-04-18T20:19:50.409Z,6.63
2018-04-18T20:22:17.418Z,8.23
2018-04-18T20:24:44.451Z,8.03
2018-04-18T20:27:12.247Z,7.90
2018-04-18T20:29:39.428Z,8.73
2018-04-18T20:32:06.445Z,8.23
2018-04-18T20:34:33.508Z,10.13
2018-04-18T20:37:00.797Z,8.47
2018-04-18T20:39:27.812Z,11.03
2018-04-18T20:41:54.912Z,9.27
2018-04-18T20:44:22.687Z,9.03
2018-04-18T20:46:49.743Z,8.50
2018-04-18T20:49:17.025Z,9.33
2018-04-18T20:51:44.209Z,8.30
2018-04-18T20:54:12.041Z,8.33
2018-04-18T20:56:40.388Z,8.17
2018-04-18T20:59:07.551Z,10.30
2018-04-18T21:01:34.627Z,12.90
2018-04-18T21:04:02.000Z,8.27
2018-04-18T21:06:29.123Z,7.87
2018-04-18T21:08:57.161Z,7.27
2018-04-18T21:11:24.250Z,8.27
2018-04-18T21:13:51.264Z,6.70
2018-04-18T21:16:18.283Z,8.50
2018-04-18T21:18:45.552Z,7.73
2018-04-18T21:21:13.336Z,6.53
2018-04-18T21:23:40.356Z,9.17
2018-04-18T21:26:08.320Z,8.73
2018-04-18T21:28:35.505Z,7.53
2018-04-18T21:31:02.785Z,7.67
2018-04-18T21:33:29.782Z,7.73
2018-04-18T21:35:56.791Z,8.33
2018-04-18T21:38:23.819Z,7.47
2018-04-18T21:40:50.837Z,9.80
2018-04-18T21:43:17.865Z,6.73
2018-04-18T21:45:44.856Z,8.50
2018-04-18T21:48:11.863Z,9.40
2018-04-18T21:50:38.877Z,8.30
2018-04-18T21:53:05.877Z,7.67
2018-04-18T21:55:32.880Z,7.80
2018-04-18T21:57:59.880Z,6.83
2018-04-18T22:00:26.913Z,7.67
2018-04-18T22:02:53.944Z,8.60
2018-04-18T22:05:21.000Z,7.30
2018-04-18T22:07:48.817Z,7.73
2018-04-18T22:10:16.079Z,8.70
2018-04-18T22:12:43.831Z,8.57
2018-04-18T22:15:10.840Z,8.10
2018-04-18T22:17:37.882Z,8.10
2018-04-18T22:20:05.615Z,6.70
2018-04-18T22:22:33.372Z,7.53
2018-04-18T22:25:00.350Z,8.40
2018-04-18T22:27:27.368Z,12.03
2018-04-18T22:29:54.370Z,14.70
2018-04-18T22:32:21.379Z,10.97
2018-04-18T22:34:48.396Z,8.33
2018-04-18T22:37:15.412Z,9.57
2018-04-18T22:39:42.440Z,8.10
2018-04-18T22:42:09.449Z,11.57
2018-04-18T22:44:37.204Z,8.47
2018-04-18T22:47:04.217Z,9.37
2018-04-18T22:49:31.244Z,8.37
2018-04-18T22:51:58.252Z,9.73
2018-04-18T22:54:26.006Z,9.77
2018-04-18T22:56:53.040Z,9.57
2018-04-18T22:59:20.035Z,10.73
2018-04-18T23:01:47.054Z,10.50
2018-04-18T23:04:14.055Z,9.90
2018-04-18T23:06:41.059Z,10.03
2018-04-18T23:09:08.060Z,9.70
2018-04-18T23:11:35.078Z,8.93
2018-04-18T23:14:02.071Z,10.93
2018-04-18T23:16:29.073Z,8.93
2018-04-18T23:18:56.134Z,9.40
2018-04-18T23:21:23.192Z,9.40
2018-04-18T23:23:50.234Z,7.80
2018-04-18T23:26:17.289Z,9.30
2018-04-18T23:28:44.324Z,10.30
2018-04-18T23:31:11.335Z,9.63
2018-04-18T23:33:38.304Z,8.40
2018-04-18T23:36:05.335Z,9.20
2018-04-18T23:38:32.369Z,9.00
2018-04-18T23:41:00.128Z,8.77
2018-04-18T23:43:27.888Z,8.40
2018-04-18T23:45:55.629Z,9.67
2018-04-18T23:48:22.647Z,9.73
2018-04-18T23:50:49.648Z,8.90
2018-04-18T23:53:17.421Z,8.37
2018-04-18T23:55:45.202Z,7.57
2018-04-18T23:58:12.224Z,8.43
